sensor_id;sensor_type;location;lat;lon;timestamp;pressure;altitude;pressure_sealevel;temperature;humidity
75317;BME280;63913;51.492;10.368;2023-08-01T00:01:32;97009.94;;;15.97;95.01
75317;BME280;63913;51.492;10.368;2023-08-01T00:03:57;97013.41;;;15.96;95.78
75317;BME280;63913;51.492;10.368;2023-08-01T00:06:23;97009.06;;;15.96;95.44
75317;BME280;63913;51.492;10.368;2023-08-01T00:08:50;96989.97;;;16.00;95.58
75317;BME280;63913;51.492;10.368;2023-08-01T00:11:15;96978.75;;;15.98;94.86
75317;BME280;63913;51.492;10.368;2023-08-01T00:13:41;96962.25;;;16.02;95.32
75317;BME280;63913;51.492;10.368;2023-08-01T00:16:08;96950.03;;;16.08;94.93
75317;BME280;63913;51.492;10.368;2023-08-01T00:18:34;96944.00;;;16.06;95.19
75317;BME280;63913;51.492;10.368;2023-08-01T00:20:59;96932.00;;;16.03;95.35
75317;BME280;63913;51.492;10.368;2023-08-01T00:23:25;96928.53;;;16.04;94.90
75317;BME280;63913;51.492;10.368;2023-08-01T00:25:50;96920.66;;;16.07;95.55
75317;BME280;63913;51.492;10.368;2023-08-01T00:28:23;96911.97;;;16.08;95.08
75317;BME280;63913;51.492;10.368;2023-08-01T00:30:48;96907.69;;;16.07;94.55
75317;BME280;63913;51.492;10.368;2023-08-01T00:33:14;96903.34;;;16.08;95.30
75317;BME280;63913;51.492;10.368;2023-08-01T00:35:40;96911.16;;;16.06;94.62
75317;BME280;63913;51.492;10.368;2023-08-01T00:38:06;96900.03;;;16.02;94.57
75317;BME280;63913;51.492;10.368;2023-08-01T00:40:31;96895.59;;;16.06;95.21
75317;BME280;63913;51.492;10.368;2023-08-01T00:42:57;96892.06;;;16.10;94.62
75317;BME280;63913;51.492;10.368;2023-08-01T00:45:24;96884.28;;;16.10;94.69
75317;BME280;63913;51.492;10.368;2023-08-01T00:47:54;96893.75;;;16.13;94.60
75317;BME280;63913;51.492;10.368;2023-08-01T00:50:20;96883.22;;;16.17;94.48
75317;BME280;63913;51.492;10.368;2023-08-01T00:52:50;96879.75;;;16.18;94.72
75317;BME280;63913;51.492;10.368;2023-08-01T00:55:17;96870.19;;;16.20;94.53
75317;BME280;63913;51.492;10.368;2023-08-01T00:57:43;96870.13;;;16.22;93.79
75317;BME280;63913;51.492;10.368;2023-08-01T01:00:10;96869.19;;;16.26;94.08
75317;BME280;63913;51.492;10.368;2023-08-01T01:02:38;96862.28;;;16.25;94.65
75317;BME280;63913;51.492;10.368;2023-08-01T01:05:04;96856.28;;;16.23;93.69
75317;BME280;63913;51.492;10.368;2023-08-01T01:07:30;96855.38;;;16.24;94.57
75317;BME280;63913;51.492;10.368;2023-08-01T01:09:58;96847.75;;;16.19;94.81
75317;BME280;63913;51.492;10.368;2023-08-01T01:12:23;96839.88;;;16.22;94.77
75317;BME280;63913;51.492;10.368;2023-08-01T01:14:49;96850.88;;;16.30;94.11
75317;BME280;63913;51.492;10.368;2023-08-01T01:17:15;96843.09;;;16.30;94.43
75317;BME280;63913;51.492;10.368;2023-08-01T01:19:41;96847.44;;;16.30;94.56
75317;BME280;63913;51.492;10.368;2023-08-01T01:22:07;96847.50;;;16.28;94.71
75317;BME280;63913;51.492;10.368;2023-08-01T01:24:35;96847.41;;;16.31;94.38
75317;BME280;63913;51.492;10.368;2023-08-01T01:27:03;96835.28;;;16.32;94.65
75317;BME280;63913;51.492;10.368;2023-08-01T01:29:31;96830.94;;;16.32;94.19
75317;BME280;63913;51.492;10.368;2023-08-01T01:31:59;96833.56;;;16.31;94.63
75317;BME280;63913;51.492;10.368;2023-08-01T01:34:27;96832.63;;;16.35;95.23
75317;BME280;63913;51.492;10.368;2023-08-01T01:36:52;96828.34;;;16.32;94.56
75317;BME280;63913;51.492;10.368;2023-08-01T01:39:18;96830.22;;;16.27;95.32
75317;BME280;63913;51.492;10.368;2023-08-01T01:41:43;96822.50;;;16.26;95.26
75317;BME280;63913;51.492;10.368;2023-08-01T01:44:10;96819.81;;;16.29;95.47
75317;BME280;63913;51.492;10.368;2023-08-01T01:46:35;96805.19;;;16.26;95.16
75317;BME280;63913;51.492;10.368;2023-08-01T01:49:01;96803.44;;;16.27;95.89
75317;BME280;63913;51.492;10.368;2023-08-01T01:51:27;96810.41;;;16.25;95.44
75317;BME280;63913;51.492;10.368;2023-08-01T01:53:53;96800.97;;;16.22;96.42
75317;BME280;63913;51.492;10.368;2023-08-01T01:56:18;96789.72;;;16.22;96.33
75317;BME280;63913;51.492;10.368;2023-08-01T01:58:43;96779.47;;;16.19;96.71
75317;BME280;63913;51.492;10.368;2023-08-01T02:01:09;96777.09;;;16.11;97.06
75317;BME280;63913;51.492;10.368;2023-08-01T02:03:34;96777.69;;;16.21;97.30
75317;BME280;63913;51.492;10.368;2023-08-01T02:06:01;96773.59;;;16.12;97.58
75317;BME280;63913;51.492;10.368;2023-08-01T02:08:29;96767.69;;;16.07;97.52
75317;BME280;63913;51.492;10.368;2023-08-01T02:10:54;96755.59;;;16.06;98.88
75317;BME280;63913;51.492;10.368;2023-08-01T02:13:23;96784.00;;;16.11;97.87
75317;BME280;63913;51.492;10.368;2023-08-01T02:15:49;96782.28;;;16.11;98.02
75317;BME280;63913;51.492;10.368;2023-08-01T02:18:14;96780.59;;;16.09;97.65
75317;BME280;63913;51.492;10.368;2023-08-01T02:20:39;96784.19;;;16.05;98.25
75317;BME280;63913;51.492;10.368;2023-08-01T02:23:05;96784.09;;;16.08;97.54
75317;BME280;63913;51.492;10.368;2023-08-01T02:25:30;96784.22;;;16.03;98.40
75317;BME280;63913;51.492;10.368;2023-08-01T02:27:56;96782.44;;;16.05;97.83
75317;BME280;63913;51.492;10.368;2023-08-01T02:30:21;96783.34;;;16.04;98.27
75317;BME280;63913;51.492;10.368;2023-08-01T02:32:46;96776.41;;;16.05;98.34
75317;BME280;63913;51.492;10.368;2023-08-01T02:35:12;96771.13;;;16.08;98.79
75317;BME280;63913;51.492;10.368;2023-08-01T02:37:37;96762.44;;;16.09;98.46
75317;BME280;63913;51.492;10.368;2023-08-01T02:40:03;96770.19;;;16.10;98.60
75317;BME280;63913;51.492;10.368;2023-08-01T02:42:32;96766.69;;;16.13;98.27
75317;BME280;63913;51.492;10.368;2023-08-01T02:44:58;96759.91;;;16.07;98.38
75317;BME280;63913;51.492;10.368;2023-08-01T02:47:23;96767.69;;;16.07;98.65
75317;BME280;63913;51.492;10.368;2023-08-01T02:49:49;96772.91;;;16.06;98.68
75317;BME280;63913;51.492;10.368;2023-08-01T02:52:14;96772.13;;;16.03;98.54
75317;BME280;63913;51.492;10.368;2023-08-01T02:54:39;96765.91;;;16.09;98.54
75317;BME280;63913;51.492;10.368;2023-08-01T02:57:05;96747.78;;;16.08;98.63
75317;BME280;63913;51.492;10.368;2023-08-01T02:59:31;96754.72;;;16.07;98.46
75317;BME280;63913;51.492;10.368;2023-08-01T03:01:58;96746.16;;;16.05;98.67
75317;BME280;63913;51.492;10.368;2023-08-01T03:04:24;96742.59;;;16.08;99.12
75317;BME280;63913;51.492;10.368;2023-08-01T03:06:50;96728.00;;;16.05;98.55
75317;BME280;63913;51.492;10.368;2023-08-01T03:09:15;96721.16;;;16.02;98.46
75317;BME280;63913;51.492;10.368;2023-08-01T03:11:41;96718.59;;;16.01;98.98
75317;BME280;63913;51.492;10.368;2023-08-01T03:14:06;96716.81;;;16.03;98.86
75317;BME280;63913;51.492;10.368;2023-08-01T03:16:32;96708.25;;;15.99;98.73
75317;BME280;63913;51.492;10.368;2023-08-01T03:18:57;96692.75;;;15.98;98.42
75317;BME280;63913;51.492;10.368;2023-08-01T03:21:24;96665.00;;;16.01;99.30
75317;BME280;63913;51.492;10.368;2023-08-01T03:23:51;96653.00;;;15.97;99.24
75317;BME280;63913;51.492;10.368;2023-08-01T03:26:17;96640.81;;;16.01;98.14
75317;BME280;63913;51.492;10.368;2023-08-01T03:28:43;96639.94;;;16.02;98.51
75317;BME280;63913;51.492;10.368;2023-08-01T03:31:08;96625.13;;;16.06;97.82
75317;BME280;63913;51.492;10.368;2023-08-01T03:33:34;96612.22;;;16.04;98.18
75317;BME280;63913;51.492;10.368;2023-08-01T03:36:00;96613.19;;;16.00;99.06
75317;BME280;63913;51.492;10.368;2023-08-01T03:38:26;96588.28;;;15.96;99.16
75317;BME280;63913;51.492;10.368;2023-08-01T03:40:51;96571.75;;;15.98;98.47
75317;BME280;63913;51.492;10.368;2023-08-01T03:43:17;96557.19;;;15.94;99.41
75317;BME280;63913;51.492;10.368;2023-08-01T03:45:42;96539.06;;;15.94;99.20
75317;BME280;63913;51.492;10.368;2023-08-01T03:48:07;96563.25;;;15.95;98.93
75317;BME280;63913;51.492;10.368;2023-08-01T03:50:33;96583.19;;;15.91;99.02
75317;BME280;63913;51.492;10.368;2023-08-01T03:52:58;96567.69;;;15.90;99.54
75317;BME280;63913;51.492;10.368;2023-08-01T03:55:24;96540.84;;;15.92;99.59
75317;BME280;63913;51.492;10.368;2023-08-01T03:57:49;96527.97;;;15.89;99.77
75317;BME280;63913;51.492;10.368;2023-08-01T04:00:14;96553.34;;;15.80;100.00
75317;BME280;63913;51.492;10.368;2023-08-01T04:02:43;96571.47;;;15.80;100.00
75317;BME280;63913;51.492;10.368;2023-08-01T04:05:08;96581.06;;;15.76;100.00
75317;BME280;63913;51.492;10.368;2023-08-01T04:07:35;96609.50;;;15.79;100.00
75317;BME280;63913;51.492;10.368;2023-08-01T04:10:02;96589.63;;;15.80;100.00
75317;BME280;63913;51.492;10.368;2023-08-01T04:12:28;96613.09;;;15.74;100.00
75317;BME280;63913;51.492;10.368;2023-08-01T04:14:53;96622.44;;;15.79;100.00
75317;BME280;63913;51.492;10.368;2023-08-01T04:17:19;96623.19;;;15.83;100.00
75317;BME280;63913;51.492;10.368;2023-08-01T04:19:44;96644.03;;;15.80;100.00
75317;BME280;63913;51.492;10.368;2023-08-01T04:22:09;96638.00;;;15.79;100.00
75317;BME280;63913;51.492;10.368;2023-08-01T04:24:35;96625.81;;;15.81;100.00
75317;BME280;63913;51.492;10.368;2023-08-01T04:27:00;96620.75;;;15.78;100.00
75317;BME280;63913;51.492;10.368;2023-08-01T04:29:26;96592.22;;;15.80;100.00
75317;BME280;63913;51.492;10.368;2023-08-01T04:31:51;96547.31;;;15.79;100.00
75317;BME280;63913;51.492;10.368;2023-08-01T04:34:17;96562.06;;;15.76;99.86
75317;BME280;63913;51.492;10.368;2023-08-01T04:36:42;96575.84;;;15.78;100.00
75317;BME280;63913;51.492;10.368;2023-08-01T04:39:07;96586.91;;;15.83;99.17
75317;BME280;63913;51.492;10.368;2023-08-01T04:41:33;96592.09;;;15.83;99.44
75317;BME280;63913;51.492;10.368;2023-08-01T04:43:58;96592.03;;;15.86;99.56
75317;BME280;63913;51.492;10.368;2023-08-01T04:46:23;96592.03;;;15.86;99.37
75317;BME280;63913;51.492;10.368;2023-08-01T04:48:49;96604.94;;;15.87;99.75
75317;BME280;63913;51.492;10.368;2023-08-01T04:51:14;96594.47;;;15.90;99.76
75317;BME280;63913;51.492;10.368;2023-08-01T04:53:40;96581.50;;;15.90;99.18
75317;BME280;63913;51.492;10.368;2023-08-01T04:56:05;96564.38;;;15.86;100.00
75317;BME280;63913;51.492;10.368;2023-08-01T04:58:30;96566.06;;;15.87;99.72
75317;BME280;63913;51.492;10.368;2023-08-01T05:00:56;96554.00;;;15.86;99.69
75317;BME280;63913;51.492;10.368;2023-08-01T05:03:21;96555.59;;;15.90;99.50
75317;BME280;63913;51.492;10.368;2023-08-01T05:05:46;96562.59;;;15.88;99.93
75317;BME280;63913;51.492;10.368;2023-08-01T05:08:12;96570.41;;;15.87;99.98
75317;BME280;63913;51.492;10.368;2023-08-01T05:10:37;96569.50;;;15.88;100.00
75317;BME280;63913;51.492;10.368;2023-08-01T05:13:03;96577.97;;;15.93;100.00
75317;BME280;63913;51.492;10.368;2023-08-01T05:15:28;96571.22;;;15.89;100.00
75317;BME280;63913;51.492;10.368;2023-08-01T05:17:53;96605.66;;;15.92;100.00
75317;BME280;63913;51.492;10.368;2023-08-01T05:20:19;96608.19;;;15.94;100.00
75317;BME280;63913;51.492;10.368;2023-08-01T05:22:45;96625.69;;;15.87;100.00
75317;BME280;63913;51.492;10.368;2023-08-01T05:25:10;96626.34;;;15.94;100.00
75317;BME280;63913;51.492;10.368;2023-08-01T05:27:35;96604.81;;;15.90;100.00
75317;BME280;63913;51.492;10.368;2023-08-01T05:30:01;96579.69;;;15.94;100.00
75317;BME280;63913;51.492;10.368;2023-08-01T05:32:26;96579.91;;;15.86;100.00
75317;BME280;63913;51.492;10.368;2023-08-01T05:34:52;96573.88;;;15.86;100.00
75317;BME280;63913;51.492;10.368;2023-08-01T05:37:17;96570.44;;;15.85;100.00
75317;BME280;63913;51.492;10.368;2023-08-01T05:39:42;96554.84;;;15.87;100.00
75317;BME280;63913;51.492;10.368;2023-08-01T05:42:08;96560.06;;;15.85;100.00
75317;BME280;63913;51.492;10.368;2023-08-01T05:44:34;96576.28;;;15.92;100.00
75317;BME280;63913;51.492;10.368;2023-08-01T05:47:00;96571.88;;;15.95;100.00
75317;BME280;63913;51.492;10.368;2023-08-01T05:49:25;96559.88;;;15.91;100.00
75317;BME280;63913;51.492;10.368;2023-08-01T05:51:51;96558.09;;;15.93;100.00
75317;BME280;63913;51.492;10.368;2023-08-01T05:54:16;96567.53;;;15.96;100.00
75317;BME280;63913;51.492;10.368;2023-08-01T05:56:42;96566.72;;;15.94;100.00
75317;BME280;63913;51.492;10.368;2023-08-01T05:59:07;96564.09;;;15.95;100.00
75317;BME280;63913;51.492;10.368;2023-08-01T06:01:34;96568.31;;;15.98;100.00
75317;BME280;63913;51.492;10.368;2023-08-01T06:03:59;96560.59;;;15.96;100.00
75317;BME280;63913;51.492;10.368;2023-08-01T06:06:24;96565.78;;;15.96;100.00
75317;BME280;63913;51.492;10.368;2023-08-01T06:08:50;96557.94;;;15.98;100.00
75317;BME280;63913;51.492;10.368;2023-08-01T06:11:17;96545.84;;;15.98;100.00
75317;BME280;63913;51.492;10.368;2023-08-01T06:13:42;96544.97;;;15.98;100.00
75317;BME280;63913;51.492;10.368;2023-08-01T06:16:08;96542.34;;;15.99;100.00
75317;BME280;63913;51.492;10.368;2023-08-01T06:18:33;96533.72;;;15.99;100.00
75317;BME280;63913;51.492;10.368;2023-08-01T06:20:58;96546.59;;;16.02;100.00
75317;BME280;63913;51.492;10.368;2023-08-01T06:23:24;96556.06;;;16.03;100.00
75317;BME280;63913;51.492;10.368;2023-08-01T06:25:49;96545.84;;;15.98;100.00
75317;BME280;63913;51.492;10.368;2023-08-01T06:28:15;96538.94;;;15.97;100.00
75317;BME280;63913;51.492;10.368;2023-08-01T06:30:40;96536.28;;;16.00;100.00
75317;BME280;63913;51.492;10.368;2023-08-01T06:33:05;96536.22;;;16.02;100.00
75317;BME280;63913;51.492;10.368;2023-08-01T06:35:31;96541.53;;;15.97;100.00
75317;BME280;63913;51.492;10.368;2023-08-01T06:37:56;96533.69;;;16.00;100.00
75317;BME280;63913;51.492;10.368;2023-08-01T06:40:22;96533.56;;;16.05;100.00
75317;BME280;63913;51.492;10.368;2023-08-01T06:42:47;96539.44;;;16.10;100.00
75317;BME280;63913;51.492;10.368;2023-08-01T06:45:13;96540.31;;;16.09;100.00
75317;BME280;63913;51.492;10.368;2023-08-01T06:47:38;96532.50;;;16.11;100.00
75317;BME280;63913;51.492;10.368;2023-08-01T06:50:04;96547.06;;;16.15;100.00
75317;BME280;63913;51.492;10.368;2023-08-01T06:52:30;96614.75;;;16.06;100.00
75317;BME280;63913;51.492;10.368;2023-08-01T06:54:55;96607.66;;;15.83;100.00
75317;BME280;63913;51.492;10.368;2023-08-01T06:57:26;96615.88;;;15.68;100.00
75317;BME280;63913;51.492;10.368;2023-08-01T06:59:52;96625.72;;;15.55;100.00
75317;BME280;63913;51.492;10.368;2023-08-01T07:02:17;96624.28;;;15.43;100.00
75317;BME280;63913;51.492;10.368;2023-08-01T07:04:42;96624.28;;;15.43;100.00
75317;BME280;63913;51.492;10.368;2023-08-01T07:07:08;96638.09;;;15.44;100.00
75317;BME280;63913;51.492;10.368;2023-08-01T07:09:34;96634.91;;;15.33;100.00
75317;BME280;63913;51.492;10.368;2023-08-01T07:12:00;96642.63;;;15.36;100.00
75317;BME280;63913;51.492;10.368;2023-08-01T07:14:26;96654.66;;;15.38;100.00
75317;BME280;63913;51.492;10.368;2023-08-01T07:16:51;96649.69;;;15.29;100.00
75317;BME280;63913;51.492;10.368;2023-08-01T07:19:18;96649.56;;;15.34;100.00
75317;BME280;63913;51.492;10.368;2023-08-01T07:21:43;96663.31;;;15.37;100.00
75317;BME280;63913;51.492;10.368;2023-08-01T07:24:11;96653.88;;;15.35;100.00
75317;BME280;63913;51.492;10.368;2023-08-01T07:26:39;96660.81;;;15.33;100.00
75317;BME280;63913;51.492;10.368;2023-08-01T07:29:04;96664.34;;;15.30;100.00
75317;BME280;63913;51.492;10.368;2023-08-01T07:31:29;96670.44;;;15.27;100.00
75317;BME280;63913;51.492;10.368;2023-08-01T07:33:55;96667.16;;;15.22;100.00
75317;BME280;63913;51.492;10.368;2023-08-01T07:36:21;96668.78;;;15.25;100.00
75317;BME280;63913;51.492;10.368;2023-08-01T07:38:47;96669.63;;;15.25;100.00
75317;BME280;63913;51.492;10.368;2023-08-01T07:41:12;96686.69;;;15.34;100.00
75317;BME280;63913;51.492;10.368;2023-08-01T07:43:38;96684.28;;;15.26;100.00
75317;BME280;63913;51.492;10.368;2023-08-01T07:46:03;96676.69;;;15.20;100.00
75317;BME280;63913;51.492;10.368;2023-08-01T07:48:28;96681.84;;;15.20;100.00
75317;BME280;63913;51.492;10.368;2023-08-01T07:50:54;96680.06;;;15.24;100.00
75317;BME280;63913;51.492;10.368;2023-08-01T07:53:19;96699.13;;;15.20;100.00
75317;BME280;63913;51.492;10.368;2023-08-01T07:55:45;96691.41;;;15.18;100.00
75317;BME280;63913;51.492;10.368;2023-08-01T07:58:10;96691.50;;;15.15;100.00
75317;BME280;63913;51.492;10.368;2023-08-01T08:00:36;96695.75;;;15.16;100.00
75317;BME280;63913;51.492;10.368;2023-08-01T08:03:01;96699.16;;;15.18;100.00
75317;BME280;63913;51.492;10.368;2023-08-01T08:05:27;96708.69;;;15.16;100.00
75317;BME280;63913;51.492;10.368;2023-08-01T08:07:52;96714.66;;;15.20;100.00
75317;BME280;63913;51.492;10.368;2023-08-01T08:10:17;96705.22;;;15.17;100.00
75317;BME280;63913;51.492;10.368;2023-08-01T08:12:43;96715.38;;;15.25;100.00
75317;BME280;63913;51.492;10.368;2023-08-01T08:15:08;96708.53;;;15.24;100.00
75317;BME280;63913;51.492;10.368;2023-08-01T08:17:34;96714.53;;;15.24;100.00
75317;BME280;63913;51.492;10.368;2023-08-01T08:19:59;96704.91;;;15.31;100.00
75317;BME280;63913;51.492;10.368;2023-08-01T08:22:25;96711.72;;;15.34;99.92
75317;BME280;63913;51.492;10.368;2023-08-01T08:24:50;96706.59;;;15.32;99.71
75317;BME280;63913;51.492;10.368;2023-08-01T08:27:15;96705.00;;;15.26;99.46
75317;BME280;63913;51.492;10.368;2023-08-01T08:29:41;96715.16;;;15.34;98.24
75317;BME280;63913;51.492;10.368;2023-08-01T08:32:07;96705.94;;;15.24;98.70
75317;BME280;63913;51.492;10.368;2023-08-01T08:34:32;96712.75;;;15.26;98.82
75317;BME280;63913;51.492;10.368;2023-08-01T08:36:57;96721.16;;;15.36;99.18
75317;BME280;63913;51.492;10.368;2023-08-01T08:39:23;96721.31;;;15.30;98.71
75317;BME280;63913;51.492;10.368;2023-08-01T08:41:51;96735.19;;;15.27;97.88
75317;BME280;63913;51.492;10.368;2023-08-01T08:44:20;96722.31;;;15.24;96.84
75317;BME280;63913;51.492;10.368;2023-08-01T08:46:54;96723.25;;;15.22;96.70
75317;BME280;63913;51.492;10.368;2023-08-01T08:49:24;96718.91;;;15.24;97.34
75317;BME280;63913;51.492;10.368;2023-08-01T08:51:52;96729.09;;;15.30;96.96
75317;BME280;63913;51.492;10.368;2023-08-01T08:54:19;96729.25;;;15.24;95.97
75317;BME280;63913;51.492;10.368;2023-08-01T08:56:45;96740.38;;;15.27;95.60
75317;BME280;63913;51.492;10.368;2023-08-01T08:59:11;96737.94;;;15.21;96.34
75317;BME280;63913;51.492;10.368;2023-08-01T09:01:37;96737.16;;;15.18;96.34
75317;BME280;63913;51.492;10.368;2023-08-01T09:04:08;96741.56;;;15.14;97.06
75317;BME280;63913;51.492;10.368;2023-08-01T09:06:55;96745.78;;;15.17;98.09
75317;BME280;63913;51.492;10.368;2023-08-01T09:09:23;96751.44;;;15.33;98.27
75317;BME280;63913;51.492;10.368;2023-08-01T09:11:52;96756.47;;;15.40;97.77
75317;BME280;63913;51.492;10.368;2023-08-01T09:14:19;96750.94;;;15.55;97.23
75317;BME280;63913;51.492;10.368;2023-08-01T09:16:45;96756.69;;;15.65;96.81
75317;BME280;63913;51.492;10.368;2023-08-01T09:19:16;96751.25;;;15.76;95.45
75317;BME280;63913;51.492;10.368;2023-08-01T09:21:42;96759.78;;;15.81;95.52
75317;BME280;63913;51.492;10.368;2023-08-01T09:24:15;96748.59;;;15.79;93.52
75317;BME280;63913;51.492;10.368;2023-08-01T09:26:41;96746.06;;;15.76;92.72
75317;BME280;63913;51.492;10.368;2023-08-01T09:29:07;96764.22;;;15.76;91.96
75317;BME280;63913;51.492;10.368;2023-08-01T09:31:35;96762.38;;;15.81;91.72
75317;BME280;63913;51.492;10.368;2023-08-01T09:34:02;96760.88;;;15.72;90.23
75317;BME280;63913;51.492;10.368;2023-08-01T09:36:32;96753.00;;;15.75;91.63
75317;BME280;63913;51.492;10.368;2023-08-01T09:38:59;96762.53;;;15.73;90.98
75317;BME280;63913;51.492;10.368;2023-08-01T09:41:25;96749.75;;;15.67;91.58
75317;BME280;63913;51.492;10.368;2023-08-01T09:43:53;96764.38;;;15.70;92.19
75317;BME280;63913;51.492;10.368;2023-08-01T09:46:18;96757.25;;;15.78;92.25
75317;BME280;63913;51.492;10.368;2023-08-01T09:48:44;96757.94;;;15.84;92.17
75317;BME280;63913;51.492;10.368;2023-08-01T09:51:12;96762.25;;;15.84;90.05
75317;BME280;63913;51.492;10.368;2023-08-01T09:53:52;96766.78;;;16.08;90.67
75317;BME280;63913;51.492;10.368;2023-08-01T09:56:23;96765.63;;;16.20;86.66
75317;BME280;63913;51.492;10.368;2023-08-01T09:58:56;96755.47;;;16.41;86.76
75317;BME280;63913;51.492;10.368;2023-08-01T10:01:23;96767.06;;;16.61;86.22
75317;BME280;63913;51.492;10.368;2023-08-01T10:03:51;96759.03;;;16.68;86.28
75317;BME280;63913;51.492;10.368;2023-08-01T10:06:21;96756.25;;;16.74;86.16
75317;BME280;63913;51.492;10.368;2023-08-01T10:08:49;96759.19;;;16.92;87.05
75317;BME280;63913;51.492;10.368;2023-08-01T10:11:18;96749.22;;;17.06;84.56
75317;BME280;63913;51.492;10.368;2023-08-01T10:13:45;96740.25;;;17.16;84.08
75317;BME280;63913;51.492;10.368;2023-08-01T10:16:12;96752.22;;;17.20;83.62
75317;BME280;63913;51.492;10.368;2023-08-01T10:18:38;96737.06;;;17.34;82.72
75317;BME280;63913;51.492;10.368;2023-08-01T10:21:14;96755.41;;;17.54;82.17
75317;BME280;63913;51.492;10.368;2023-08-01T10:23:41;96749.22;;;17.59;80.50
75317;BME280;63913;51.492;10.368;2023-08-01T10:26:08;96749.56;;;17.48;79.35
75317;BME280;63913;51.492;10.368;2023-08-01T10:28:39;96743.03;;;17.63;77.37
75317;BME280;63913;51.492;10.368;2023-08-01T10:31:09;96746.88;;;17.77;78.16
75317;BME280;63913;51.492;10.368;2023-08-01T10:33:37;96757.72;;;17.90;76.49
75317;BME280;63913;51.492;10.368;2023-08-01T10:36:15;96748.84;;;17.96;75.65
75317;BME280;63913;51.492;10.368;2023-08-01T10:39:01;96744.88;;;18.09;75.81
75317;BME280;63913;51.492;10.368;2023-08-01T10:41:33;96759.78;;;18.05;76.75
75317;BME280;63913;51.492;10.368;2023-08-01T10:44:10;96753.03;;;17.75;74.99
75317;BME280;63913;51.492;10.368;2023-08-01T10:46:55;96756.84;;;17.65;77.86
75317;BME280;63913;51.492;10.368;2023-08-01T10:51:58;96765.41;;;17.40;77.90
75317;BME280;63913;51.492;10.368;2023-08-01T10:54:25;96761.38;;;17.32;79.40
75317;BME280;63913;51.492;10.368;2023-08-01T10:56:53;96766.81;;;17.24;79.40
75317;BME280;63913;51.492;10.368;2023-08-01T10:59:19;96774.75;;;17.20;80.90
75317;BME280;63913;51.492;10.368;2023-08-01T11:04:15;96767.94;;;17.70;79.03
75317;BME280;63913;51.492;10.368;2023-08-01T11:06:48;96767.72;;;18.01;79.71
75317;BME280;63913;51.492;10.368;2023-08-01T11:09:15;96753.34;;;18.39;77.08
75317;BME280;63913;51.492;10.368;2023-08-01T11:11:41;96758.28;;;18.46;73.10
75317;BME280;63913;51.492;10.368;2023-08-01T11:14:07;96754.88;;;18.44;72.00
75317;BME280;63913;51.492;10.368;2023-08-01T11:16:32;96754.03;;;18.44;73.72
75317;BME280;63913;51.492;10.368;2023-08-01T11:18:58;96759.06;;;18.48;72.89
75317;BME280;63913;51.492;10.368;2023-08-01T11:21:25;96771.66;;;18.60;74.79
75317;BME280;63913;51.492;10.368;2023-08-01T11:23:51;96757.59;;;18.88;72.54
75317;BME280;63913;51.492;10.368;2023-08-01T11:26:17;96749.72;;;19.11;73.45
75317;BME280;63913;51.492;10.368;2023-08-01T11:28:42;96751.94;;;18.98;72.50
75317;BME280;63913;51.492;10.368;2023-08-01T11:31:11;96776.13;;;18.80;78.52
75317;BME280;63913;51.492;10.368;2023-08-01T11:33:40;96766.81;;;18.50;76.85
75317;BME280;63913;51.492;10.368;2023-08-01T11:36:06;96764.31;;;18.23;80.40
75317;BME280;63913;51.492;10.368;2023-08-01T11:38:33;96768.47;;;18.04;79.48
75317;BME280;63913;51.492;10.368;2023-08-01T11:41:04;96775.09;;;17.88;81.71
75317;BME280;63913;51.492;10.368;2023-08-01T11:43:41;96772.13;;;17.74;82.59
75317;BME280;63913;51.492;10.368;2023-08-01T11:46:07;96774.91;;;17.68;85.01
75317;BME280;63913;51.492;10.368;2023-08-01T11:48:32;96775.03;;;17.65;83.03
75317;BME280;63913;51.492;10.368;2023-08-01T11:50:58;96779.28;;;17.92;86.59
75317;BME280;63913;51.492;10.368;2023-08-01T11:53:28;96778.28;;;18.21;86.29
75317;BME280;63913;51.492;10.368;2023-08-01T11:55:54;96781.84;;;18.42;82.89
75317;BME280;63913;51.492;10.368;2023-08-01T11:58:48;96777.47;;;18.67;80.56
75317;BME280;63913;51.492;10.368;2023-08-01T12:01:14;96763.56;;;18.90;82.86
75317;BME280;63913;51.492;10.368;2023-08-01T12:03:51;96767.78;;;19.16;80.01
75317;BME280;63913;51.492;10.368;2023-08-01T12:06:18;96772.38;;;19.31;77.34
75317;BME280;63913;51.492;10.368;2023-08-01T12:08:46;96775.28;;;19.45;74.47
75317;BME280;63913;51.492;10.368;2023-08-01T12:11:27;96769.53;;;19.59;74.04
75317;BME280;63913;51.492;10.368;2023-08-01T12:14:13;96765.91;;;19.83;70.92
75317;BME280;63913;51.492;10.368;2023-08-01T12:16:41;96772.78;;;20.04;70.30
75317;BME280;63913;51.492;10.368;2023-08-01T12:19:09;96776.19;;;20.06;67.31
75317;BME280;63913;51.492;10.368;2023-08-01T12:21:35;96783.63;;;20.15;67.57
75317;BME280;63913;51.492;10.368;2023-08-01T12:24:01;96784.47;;;20.16;66.63
75317;BME280;63913;51.492;10.368;2023-08-01T12:26:27;96781.47;;;20.25;65.89
75317;BME280;63913;51.492;10.368;2023-08-01T12:28:55;96780.88;;;20.39;66.02
75317;BME280;63913;51.492;10.368;2023-08-01T12:31:22;96777.13;;;20.65;66.20
75317;BME280;63913;51.492;10.368;2023-08-01T12:33:47;96762.66;;;20.58;62.11
75317;BME280;63913;51.492;10.368;2023-08-01T12:36:13;96789.03;;;20.31;62.04
75317;BME280;63913;51.492;10.368;2023-08-01T12:38:39;96775.88;;;20.34;60.42
75317;BME280;63913;51.492;10.368;2023-08-01T12:41:05;96775.47;;;20.23;62.51
75317;BME280;63913;51.492;10.368;2023-08-01T12:43:30;96787.38;;;20.10;63.13
75317;BME280;63913;51.492;10.368;2023-08-01T12:45:56;96779.25;;;20.16;61.32
75317;BME280;63913;51.492;10.368;2023-08-01T12:48:24;96784.47;;;20.36;61.08
75317;BME280;63913;51.492;10.368;2023-08-01T12:50:50;96790.09;;;20.47;60.76